To NAV CANADA Home Page Login to a new session Search on AWWS site Feedback and Comments Disclaimer Vers la page française équivalente Tips FAQ What's new on the site To the Forecasts and Observations / NOTAM section To "File a Flight Plan" website Publications and other links Update of the User's profile FIC Telephone Numbers My Weather Data Folder Route Weather Data Regional Weather Data Local Weather Data To the Forecasts and Observations / NOTAM section
Request Generated 04/23/2014 at 22:04:16 UTC . Weather information available at that time is displayed.

METAR/TAF

MEDICINE HAT/AB    

SPECI CYXH 232133Z 29018G26KT 30SM VCSH SCT060 BKN080 11/05 A2950 RMK
CU4AC2 SLP998 DENSITY ALT 2900FT=
SPECI CYXH 232115Z 25012G18KT 30SM -SHRA SCT060 BKN080 11/04 A2951
RMK CU4AC3 SLP001 DENSITY ALT 2900FT=
METAR CYXH 232100Z 26012G19KT 30SM SCT060 BKN080 11/03 A2951 RMK
CU3AC4 SLP001 DENSITY ALT 2900FT=
METAR CYXH 232000Z 33014G22KT 250V330 30SM SCT060 BKN080 11/04 A2948
RMK CU3AC4 SLP992 DENSITY ALT 2900FT=
SPECI CYXH 231937Z 27010KT 30SM SCT060 BKN072 13/03 A2948 RMK CU3AC4
SLP988 DENSITY ALT 3100FT=
METAR CYXH 231900Z 29009G17KT 30SM -SHRA SCT045 BKN055 09/06 A2948
RMK CU3SC3 SLP994 DENSITY ALT 2600FT=

TAF AMD CYXH 231911Z 2319/2406 29012G22KT P6SM SCT040 BKN080 TEMPO
2319/2324 P6SM -SHRA BKN040 PROB30 2319/2324 VRB25G35KT 5SM TSRA
BKN030CB
FM240000 26020G30KT P6SM SCT080 TEMPO 2400/2403 P6SM VCSH SCT030
BKN080
FM240400 25015G25KT P6SM SCT090
RMK NXT FCST BY 240000Z=
Your time UTC time
Weather data provided by Environment Canada and NAV CANADA